Owensboro Daviess County Airport
KOWB : rendu visible

Aérodrome :











RETROUVEZ-NOUS SUR...

 
LOGIN :

S'inscrire | Disclaimer

   EN    FR    IT 

 









Légende :    VFR   VFR Marginal   IFR   IFR Intensif   IFR Très Intensif
Visi : 
Plafond : 
>= 8 km
>= 3000ft
5 à 8 km
1000 à 3000 ft
1500m à 5 km
500 à 1000 ft
800 à 1500m
200 à 500 ft
< 800m
< 200 ft
Symboles :   Orages  Brouillard  Fortes neiges  Fortes précipitations  Vent > 20 kt






- Altitude de l'aérodrome : 407 ft
- Code IATA : OWB


KOWB - Owensboro Daviess County

DERNIER METAR :
  • 100656Z AUTO 33017KT 10SM -RA OVC017 04/02 A2996 RMK AO2 RAB00 SLP149 P0000 T00440017

METARs EXPIRÉS :
  • 100605Z AUTO 33013G19KT 10SM -RA OVC015 06/03 A2994 RMK AO2 RAB00 P0000
  • 100556Z AUTO 33018KT 10SM OVC013 06/03 A2993 RMK AO2 PK WND 32027/0502 SLP135 60000 T00560033 10156 20056 401560056 53044
  • 100456Z AUTO 32023G27KT 10SM OVC013 07/05 A2989 RMK AO2 PK WND 33027/0455 SLP123 T00720050

TAF KOWB
Valide du 10 à 06h jusqu'au 11 à 06h UTC


100531Z 1006/1106 31014G25KT P6SM OVC015
FM100800 31014G24KT P6SM OVC023
FM101000 31012KT P6SM OVC100
FM101200 32011KT P6SM BKN250
FM102100 30006KT P6SM BKN250
FM110400 VRB03KT P6SM SCT250



MET'MAP, la Météo Aéronautique d'un coup d'oeil ! - Copyright ORBIFLY Décembre 2007 - Disclaimer

ORBIFLY MET'MAP TEAM :

Programmation & Développement : Alexandra Zaïnal
Sur une idée originale de : Baudouin d'Aumeries
Assistance à la programmation : Marc-Olivier Méhu
Soutien technique & logistique : Manuel Goepfert

Contact : metmap@orbifly.com




SOURCES & CREDITS :

   NOAA       Earth
Advisory